createdAt,value
2018-03-03T00:00:02.292Z,52.87
2018-03-03T00:02:28.546Z,54.07
2018-03-03T00:04:54.938Z,57.40
2018-03-03T00:07:21.409Z,64.23
2018-03-03T00:09:47.922Z,60.23
2018-03-03T00:12:14.339Z,58.93
2018-03-03T00:14:40.674Z,53.27
2018-03-03T00:17:07.186Z,50.20
2018-03-03T00:19:33.584Z,49.07
2018-03-03T00:21:59.988Z,53.30
2018-03-03T00:24:26.381Z,53.80
2018-03-03T00:26:52.797Z,51.23
2018-03-03T00:29:19.150Z,51.63
2018-03-03T00:31:45.530Z,50.83
2018-03-03T00:34:11.906Z,50.67
2018-03-03T00:36:38.266Z,49.23
2018-03-03T00:39:04.656Z,50.90
2018-03-03T00:41:31.057Z,48.10
2018-03-03T00:43:57.416Z,48.23
2018-03-03T00:46:23.804Z,49.23
2018-03-03T00:48:50.169Z,50.03
2018-03-03T00:51:16.553Z,49.00
2018-03-03T00:53:42.924Z,48.97
2018-03-03T00:56:09.325Z,49.63
2018-03-03T00:58:35.695Z,47.90
2018-03-03T01:01:02.118Z,49.23
2018-03-03T01:03:28.510Z,51.53
2018-03-03T01:05:54.910Z,54.47
2018-03-03T01:08:21.359Z,54.23
2018-03-03T01:10:54.646Z,55.40
2018-03-03T01:13:21.018Z,57.00
2018-03-03T01:15:47.642Z,57.03
2018-03-03T01:18:14.052Z,54.17
2018-03-03T01:20:40.412Z,56.80
2018-03-03T01:23:06.788Z,53.30
2018-03-03T01:25:33.133Z,55.30
2018-03-03T01:27:59.568Z,55.17
2018-03-03T01:30:25.905Z,57.13
2018-03-03T01:32:52.306Z,57.97
2018-03-03T01:35:18.661Z,57.67
2018-03-03T01:37:45.002Z,59.13
2018-03-03T01:40:11.345Z,61.93
2018-03-03T01:42:37.718Z,59.90
2018-03-03T01:45:04.061Z,60.03
2018-03-03T01:47:30.407Z,57.73
2018-03-03T01:49:56.737Z,57.77
2018-03-03T01:52:23.079Z,58.47
2018-03-03T01:54:49.423Z,58.70
2018-03-03T01:57:15.772Z,58.23
2018-03-03T01:59:42.181Z,57.50
2018-03-03T02:02:08.546Z,52.63
2018-03-03T02:04:34.916Z,50.27
2018-03-03T02:07:01.443Z,50.57
2018-03-03T02:09:27.789Z,51.33
2018-03-03T02:11:54.153Z,52.63
2018-03-03T02:14:20.501Z,50.87
2018-03-03T02:16:46.878Z,49.80
2018-03-03T02:19:13.376Z,50.87
2018-03-03T02:21:39.718Z,51.40
2018-03-03T02:24:06.079Z,48.80
2018-03-03T02:26:32.493Z,48.20
2018-03-03T02:28:58.838Z,49.53
2018-03-03T02:31:25.206Z,46.17
2018-03-03T02:33:51.590Z,44.37
2018-03-03T02:36:17.962Z,45.93
2018-03-03T02:38:44.326Z,45.57
2018-03-03T02:41:10.705Z,46.67
2018-03-03T02:43:37.082Z,48.63
2018-03-03T02:46:03.426Z,44.43
2018-03-03T02:48:29.951Z,46.93
2018-03-03T02:50:56.350Z,44.90
2018-03-03T02:53:22.718Z,45.23
2018-03-03T02:55:49.092Z,46.73
2018-03-03T02:58:15.485Z,43.77
2018-03-03T03:00:41.853Z,46.93
2018-03-03T03:03:08.243Z,45.63
2018-03-03T03:05:34.654Z,45.33
2018-03-03T03:08:01.017Z,44.97
2018-03-03T03:10:27.365Z,44.10
2018-03-03T03:12:53.794Z,44.77
2018-03-03T03:15:20.169Z,46.73
2018-03-03T03:17:46.522Z,47.70
2018-03-03T03:20:12.913Z,47.50
2018-03-03T03:22:39.286Z,47.07
2018-03-03T03:25:05.683Z,48.07
2018-03-03T03:27:32.090Z,50.43
2018-03-03T03:29:58.464Z,47.10
2018-03-03T03:32:24.825Z,48.97
2018-03-03T03:34:51.286Z,50.30
2018-03-03T03:37:17.686Z,42.87
2018-03-03T03:39:44.096Z,41.70
2018-03-03T03:42:10.482Z,36.93
2018-03-03T03:44:36.883Z,35.17
2018-03-03T03:47:03.270Z,36.83
2018-03-03T03:49:29.626Z,34.23
2018-03-03T03:51:55.998Z,33.13
2018-03-03T03:54:22.361Z,34.77
2018-03-03T03:56:48.735Z,34.90
2018-03-03T03:59:15.082Z,34.97
2018-03-03T04:01:41.418Z,36.13
2018-03-03T04:04:07.817Z,36.53
2018-03-03T04:06:34.178Z,36.67
2018-03-03T04:09:00.556Z,39.47
2018-03-03T04:11:27.079Z,40.57
2018-03-03T04:13:53.469Z,40.67
2018-03-03T04:16:19.833Z,44.13
2018-03-03T04:18:46.242Z,45.07
2018-03-03T04:21:12.639Z,42.60
2018-03-03T04:23:39.129Z,46.00
2018-03-03T04:26:05.581Z,47.87
2018-03-03T04:28:32.041Z,46.43
2018-03-03T04:30:58.530Z,42.60
2018-03-03T04:33:24.989Z,41.63
2018-03-03T04:35:51.422Z,45.60
2018-03-03T04:38:17.859Z,46.77
2018-03-03T04:40:44.261Z,44.23
2018-03-03T04:43:10.677Z,43.63
2018-03-03T04:45:37.050Z,41.83
2018-03-03T04:48:03.489Z,40.03
2018-03-03T04:50:29.978Z,39.20
2018-03-03T04:52:56.654Z,37.00
2018-03-03T04:55:23.107Z,36.13
2018-03-03T04:57:49.586Z,38.27
2018-03-03T05:00:19.997Z,36.20
2018-03-03T05:16:17.542Z,32.37
2018-03-03T05:18:49.817Z,32.97
2018-03-03T05:21:34.133Z,34.57
2018-03-03T05:24:07.417Z,37.77
2018-03-03T05:26:53.585Z,35.53
2018-03-03T05:29:25.995Z,35.63
2018-03-03T05:31:58.509Z,34.60
2018-03-03T05:34:30.797Z,36.20
2018-03-03T05:37:03.154Z,39.43
2018-03-03T05:39:49.273Z,41.07
2018-03-03T05:55:44.247Z,41.33
2018-03-03T05:58:27.331Z,42.33
2018-03-03T06:01:09.574Z,41.80
2018-03-03T06:03:41.847Z,42.43
2018-03-03T06:06:23.873Z,45.10
2018-03-03T06:08:51.138Z,44.67
2018-03-03T06:11:17.549Z,46.07
2018-03-03T06:13:43.962Z,43.77
2018-03-03T06:16:10.298Z,45.13
2018-03-03T06:18:37.366Z,50.10
2018-03-03T06:21:03.755Z,49.80
2018-03-03T06:23:30.091Z,52.93
2018-03-03T06:25:56.443Z,54.40
2018-03-03T06:28:22.826Z,55.70
2018-03-03T06:30:49.163Z,49.87
2018-03-03T06:33:15.557Z,46.33
2018-03-03T06:35:41.930Z,41.30
2018-03-03T06:38:08.278Z,40.50
2018-03-03T06:40:34.679Z,44.70
2018-03-03T06:43:01.024Z,59.03
2018-03-03T06:45:27.376Z,62.90
2018-03-03T06:47:53.727Z,72.07
2018-03-03T06:50:20.103Z,96.33
2018-03-03T06:52:46.558Z,81.87
2018-03-03T06:55:12.921Z,86.63
2018-03-03T06:57:39.295Z,81.03
2018-03-03T07:00:05.659Z,86.80
2018-03-03T07:02:32.005Z,80.03
2018-03-03T07:04:58.338Z,84.10
2018-03-03T07:07:24.717Z,83.63
2018-03-03T07:09:51.070Z,83.47
2018-03-03T07:12:17.480Z,84.37
2018-03-03T07:14:48.697Z,81.77
2018-03-03T07:17:15.035Z,78.57
2018-03-03T07:19:41.422Z,79.30
2018-03-03T07:22:07.950Z,81.77
2018-03-03T07:24:34.310Z,80.77
2018-03-03T07:27:00.693Z,77.80
2018-03-03T07:29:27.048Z,81.00
2018-03-03T07:31:53.440Z,79.43
2018-03-03T07:34:19.847Z,81.77
2018-03-03T07:36:46.277Z,94.93
2018-03-03T07:39:12.647Z,100.90
2018-03-03T07:41:39.038Z,103.53
2018-03-03T07:44:05.390Z,101.93
2018-03-03T07:46:31.798Z,109.23
2018-03-03T07:48:58.198Z,113.73
2018-03-03T07:51:24.586Z,108.90
2018-03-03T07:53:50.937Z,108.63
2018-03-03T07:56:17.301Z,111.33
2018-03-03T07:58:47.739Z,119.57
2018-03-03T08:01:14.154Z,128.77
2018-03-03T08:03:40.618Z,129.40
2018-03-03T08:06:07.085Z,106.60
2018-03-03T08:08:33.481Z,94.37
2018-03-03T08:10:59.919Z,122.47
2018-03-03T08:13:26.273Z,119.67
2018-03-03T08:15:52.682Z,123.00
2018-03-03T08:18:19.037Z,131.93
2018-03-03T08:20:45.400Z,133.27
2018-03-03T08:23:11.801Z,139.77
2018-03-03T08:25:38.219Z,129.67
2018-03-03T08:28:04.642Z,132.67
2018-03-03T08:30:31.030Z,102.07
2018-03-03T08:32:57.426Z,131.90
2018-03-03T08:35:23.818Z,133.17
2018-03-03T08:37:50.241Z,136.40
2018-03-03T08:40:16.612Z,140.47
2018-03-03T08:42:43.021Z,143.27
2018-03-03T08:45:09.418Z,152.27
2018-03-03T08:47:35.789Z,151.73
2018-03-03T08:50:02.242Z,161.60
2018-03-03T08:52:28.676Z,169.10
2018-03-03T08:54:55.107Z,125.57
2018-03-03T08:57:21.482Z,121.33
2018-03-03T08:59:47.978Z,116.50
2018-03-03T09:02:14.372Z,113.90
2018-03-03T09:04:40.785Z,105.43
2018-03-03T09:07:07.198Z,105.90
2018-03-03T09:09:33.565Z,94.33
2018-03-03T09:12:00.052Z,85.13
2018-03-03T09:14:26.456Z,73.97
2018-03-03T09:16:52.947Z,79.73
2018-03-03T09:19:19.381Z,67.97
2018-03-03T09:21:45.761Z,68.73
2018-03-03T09:24:12.156Z,68.87
2018-03-03T09:26:38.535Z,62.47
2018-03-03T09:29:04.974Z,59.67
2018-03-03T09:31:31.429Z,58.70
2018-03-03T09:33:57.837Z,69.97
2018-03-03T09:36:24.271Z,81.67
2018-03-03T09:38:50.717Z,81.80
2018-03-03T09:41:17.075Z,82.70
2018-03-03T09:43:43.466Z,82.83
2018-03-03T09:46:09.936Z,80.47
2018-03-03T09:48:36.438Z,79.43
2018-03-03T09:51:02.890Z,77.30
2018-03-03T09:53:29.397Z,73.83
2018-03-03T09:55:55.832Z,75.03
2018-03-03T09:58:22.161Z,82.60
2018-03-03T10:00:48.581Z,77.87
2018-03-03T10:03:14.983Z,56.43
2018-03-03T10:05:41.313Z,61.33
2018-03-03T10:08:07.647Z,64.57
2018-03-03T10:10:34.191Z,68.77
2018-03-03T10:13:00.599Z,63.60
2018-03-03T10:15:27.002Z,60.17
2018-03-03T10:17:53.385Z,56.17
2018-03-03T10:20:19.801Z,50.47
2018-03-03T10:22:46.191Z,49.60
2018-03-03T10:25:12.574Z,49.37
2018-03-03T10:27:39.020Z,45.97
2018-03-03T10:30:05.365Z,49.20
2018-03-03T10:32:31.831Z,50.57
2018-03-03T10:34:58.247Z,43.00
2018-03-03T10:37:24.630Z,44.77
2018-03-03T10:39:51.054Z,44.30
2018-03-03T10:42:17.500Z,47.17
2018-03-03T10:44:43.887Z,46.07
2018-03-03T10:47:10.281Z,47.67
2018-03-03T10:49:36.675Z,51.03
2018-03-03T10:52:03.209Z,54.80
2018-03-03T10:54:29.628Z,50.83
2018-03-03T10:56:56.012Z,47.13
2018-03-03T10:59:22.381Z,48.23
2018-03-03T11:01:48.730Z,49.50
2018-03-03T11:04:15.150Z,48.70
2018-03-03T11:06:41.545Z,49.27
2018-03-03T11:09:07.986Z,46.70
2018-03-03T11:11:34.388Z,47.50
2018-03-03T11:14:00.778Z,43.03
2018-03-03T11:16:27.149Z,43.33
2018-03-03T11:18:53.566Z,42.90
2018-03-03T11:21:19.940Z,44.57
2018-03-03T11:23:46.297Z,29.87
2018-03-03T11:26:12.746Z,28.10
2018-03-03T11:28:39.162Z,27.07
2018-03-03T11:31:05.626Z,28.50
2018-03-03T11:33:32.010Z,29.13
2018-03-03T11:35:58.355Z,26.33
2018-03-03T11:38:24.818Z,27.13
2018-03-03T11:40:51.232Z,24.03
2018-03-03T11:43:17.637Z,23.80
2018-03-03T11:45:43.998Z,20.47
2018-03-03T11:48:10.434Z,16.37
2018-03-03T11:50:36.833Z,15.83
2018-03-03T11:53:03.286Z,14.10
2018-03-03T11:55:29.644Z,14.03
2018-03-03T11:57:56.062Z,14.80
2018-03-03T12:00:22.486Z,15.73
2018-03-03T12:02:48.969Z,12.67
2018-03-03T12:05:15.392Z,13.10
2018-03-03T12:07:41.802Z,11.90
2018-03-03T12:10:08.202Z,11.10
2018-03-03T12:12:34.604Z,8.70
2018-03-03T12:15:01.026Z,6.80
2018-03-03T12:17:27.420Z,8.57
2018-03-03T12:19:53.779Z,7.30
2018-03-03T12:22:20.148Z,7.27
2018-03-03T12:24:46.517Z,7.47
2018-03-03T12:27:12.994Z,7.77
2018-03-03T12:29:39.391Z,8.40
2018-03-03T12:32:05.785Z,7.40
2018-03-03T12:34:32.166Z,8.23
2018-03-03T12:36:58.569Z,8.33
2018-03-03T12:39:25.006Z,8.70
2018-03-03T12:41:51.406Z,7.23
2018-03-03T12:44:17.739Z,8.10
2018-03-03T12:46:44.108Z,9.33
2018-03-03T12:49:10.550Z,10.93
2018-03-03T12:51:36.955Z,11.43
2018-03-03T12:54:03.313Z,12.10
2018-03-03T12:56:29.692Z,11.97
2018-03-03T12:58:56.134Z,13.20
2018-03-03T13:01:22.555Z,13.87
2018-03-03T13:03:48.914Z,16.23
2018-03-03T13:06:15.315Z,15.20
2018-03-03T13:08:41.716Z,16.37
2018-03-03T13:11:08.227Z,13.90
2018-03-03T13:13:34.597Z,12.07
2018-03-03T13:16:07.918Z,11.47
2018-03-03T13:18:34.344Z,11.33
2018-03-03T13:21:00.758Z,10.97
2018-03-03T13:23:27.174Z,9.40
2018-03-03T13:25:53.515Z,10.20
2018-03-03T13:28:19.938Z,11.60
2018-03-03T13:30:46.282Z,14.77
2018-03-03T13:33:12.683Z,19.63
2018-03-03T13:35:39.135Z,18.33
2018-03-03T13:38:05.551Z,18.03
2018-03-03T13:40:31.930Z,16.90
2018-03-03T13:42:58.317Z,13.53
2018-03-03T13:45:24.750Z,11.07
2018-03-03T13:47:51.306Z,8.90
2018-03-03T13:50:17.745Z,8.53
2018-03-03T13:52:44.107Z,9.20
2018-03-03T13:55:10.490Z,9.18
2018-03-03T13:57:36.880Z,19.35
2018-03-03T14:00:03.297Z,18.80
2018-03-03T14:02:29.688Z,17.03
2018-03-03T14:04:56.077Z,15.57
2018-03-03T14:07:22.492Z,20.67
2018-03-03T14:09:48.870Z,29.10
2018-03-03T14:12:15.309Z,25.70
2018-03-03T14:14:41.762Z,25.70
2018-03-03T14:17:08.147Z,17.93
2018-03-03T14:19:34.922Z,19.27
2018-03-03T14:22:01.321Z,19.07
2018-03-03T14:24:27.693Z,20.07
2018-03-03T14:26:54.042Z,29.63
2018-03-03T14:29:20.416Z,29.20
2018-03-03T14:31:46.766Z,26.00
2018-03-03T14:34:13.134Z,23.67
2018-03-03T14:36:39.509Z,26.57
2018-03-03T14:39:05.902Z,39.33
2018-03-03T14:41:32.254Z,33.40
2018-03-03T14:43:58.688Z,27.87
2018-03-03T14:46:25.060Z,42.73
2018-03-03T14:48:51.403Z,47.27
2018-03-03T14:51:17.852Z,53.80
2018-03-03T14:53:44.222Z,44.87
2018-03-03T14:56:10.618Z,45.33
2018-03-03T14:58:36.952Z,51.93
2018-03-03T15:01:03.317Z,54.60
2018-03-03T15:03:29.676Z,49.40
2018-03-03T15:05:56.102Z,47.10
2018-03-03T15:08:22.463Z,60.13
2018-03-03T15:10:48.804Z,60.57
2018-03-03T15:13:15.170Z,63.43
2018-03-03T15:15:41.572Z,58.07
2018-03-03T15:18:07.939Z,55.07
2018-03-03T15:20:34.317Z,57.20
2018-03-03T15:23:00.688Z,66.73
2018-03-03T15:25:27.091Z,57.60
2018-03-03T15:27:53.453Z,70.53
2018-03-03T15:30:19.834Z,75.73
2018-03-03T15:32:46.220Z,75.47
2018-03-03T15:35:12.631Z,74.60
2018-03-03T15:37:39.106Z,84.40
2018-03-03T15:40:05.543Z,82.50
2018-03-03T15:42:32.030Z,87.17
2018-03-03T15:44:58.438Z,83.97
2018-03-03T15:47:24.798Z,95.13
2018-03-03T15:49:51.179Z,93.23
2018-03-03T15:52:17.562Z,88.10
2018-03-03T15:54:43.938Z,107.20
2018-03-03T15:57:10.310Z,119.07
2018-03-03T15:59:36.685Z,114.90
2018-03-03T16:02:03.222Z,111.40
2018-03-03T16:04:29.746Z,104.27
2018-03-03T16:06:56.836Z,124.80
2018-03-03T16:09:23.211Z,178.20
2018-03-03T16:11:49.698Z,177.70
2018-03-03T16:14:16.054Z,151.80
2018-03-03T16:16:42.451Z,153.70
2018-03-03T16:19:08.863Z,183.17
2018-03-03T16:21:35.253Z,186.67
2018-03-03T16:24:01.701Z,164.37
2018-03-03T16:26:28.089Z,147.03
2018-03-03T16:28:54.534Z,134.63
2018-03-03T16:31:20.960Z,129.33
2018-03-03T16:33:47.359Z,126.63
2018-03-03T16:36:13.769Z,122.63
2018-03-03T16:38:40.147Z,122.27
2018-03-03T16:41:06.514Z,147.40
2018-03-03T16:43:32.935Z,151.80
2018-03-03T16:45:59.281Z,138.67
2018-03-03T16:48:25.650Z,153.60
2018-03-03T16:50:52.093Z,231.87
2018-03-03T16:53:18.465Z,162.47
2018-03-03T16:55:44.939Z,141.83
2018-03-03T16:58:11.350Z,353.83
2018-03-03T17:00:37.714Z,165.63
2018-03-03T17:03:04.064Z,199.73
2018-03-03T17:05:30.461Z,156.17
2018-03-03T17:07:56.814Z,192.97
2018-03-03T17:10:23.274Z,646.30
2018-03-03T17:12:49.709Z,443.33
2018-03-03T17:15:18.808Z,259.63
2018-03-03T17:17:46.211Z,225.43
2018-03-03T17:20:12.639Z,195.23
2018-03-03T17:22:39.071Z,181.63
2018-03-03T17:25:05.575Z,179.67
2018-03-03T17:27:31.937Z,159.53
2018-03-03T17:29:58.339Z,144.63
2018-03-03T17:32:24.727Z,140.13
2018-03-03T17:34:51.184Z,124.73
2018-03-03T17:37:17.577Z,132.97
2018-03-03T17:39:43.946Z,144.70
2018-03-03T17:42:10.375Z,132.73
2018-03-03T17:44:36.819Z,122.90
2018-03-03T17:47:03.178Z,107.47
2018-03-03T17:49:29.566Z,104.20
2018-03-03T17:51:55.931Z,103.00
2018-03-03T17:54:22.326Z,116.37
2018-03-03T17:56:48.689Z,133.27
2018-03-03T17:59:15.047Z,138.57
2018-03-03T18:01:41.452Z,136.33
2018-03-03T18:04:07.890Z,146.30
2018-03-03T18:06:34.224Z,157.17
2018-03-03T18:09:00.710Z,164.70
2018-03-03T18:11:27.094Z,167.67
2018-03-03T18:13:54.422Z,166.33
2018-03-03T18:16:20.831Z,186.57
2018-03-03T18:18:47.268Z,212.03
2018-03-03T18:21:13.631Z,227.03
2018-03-03T18:23:40.007Z,231.37
2018-03-03T18:26:06.455Z,224.97
2018-03-03T18:28:32.878Z,220.87
2018-03-03T18:30:59.272Z,208.97
2018-03-03T18:33:25.698Z,219.90
2018-03-03T18:35:52.066Z,219.87
2018-03-03T18:38:18.429Z,212.83
2018-03-03T18:40:44.853Z,205.13
2018-03-03T18:43:11.247Z,214.37
2018-03-03T18:45:37.646Z,192.80
2018-03-03T18:48:04.114Z,180.13
2018-03-03T18:50:30.483Z,185.63
2018-03-03T18:52:56.850Z,182.40
2018-03-03T18:55:23.324Z,189.03
2018-03-03T18:57:49.695Z,187.23
2018-03-03T19:00:16.070Z,187.63
2018-03-03T19:02:42.515Z,189.73
2018-03-03T19:05:08.911Z,186.07
2018-03-03T19:07:35.271Z,191.07
2018-03-03T19:10:01.695Z,195.23
2018-03-03T19:12:28.156Z,214.97
2018-03-03T19:14:54.519Z,208.63
2018-03-03T19:17:20.970Z,205.77
2018-03-03T19:19:47.359Z,210.17
2018-03-03T19:22:13.755Z,212.27
2018-03-03T19:24:40.354Z,211.03
2018-03-03T19:27:06.806Z,200.50
2018-03-03T19:29:33.187Z,196.10
2018-03-03T19:31:59.590Z,190.13
2018-03-03T19:34:25.987Z,181.27
2018-03-03T19:36:52.395Z,185.63
2018-03-03T19:39:18.831Z,172.53
2018-03-03T19:41:45.252Z,165.53
2018-03-03T19:44:11.595Z,156.50
2018-03-03T19:46:37.998Z,157.10
2018-03-03T19:49:04.402Z,149.70
2018-03-03T19:51:30.842Z,148.53
2018-03-03T19:53:57.232Z,146.57
2018-03-03T19:56:23.606Z,141.07
2018-03-03T19:58:50.003Z,141.53
2018-03-03T20:01:16.418Z,142.00
2018-03-03T20:03:42.852Z,145.13
2018-03-03T20:06:09.224Z,147.30
2018-03-03T20:08:35.596Z,159.23
2018-03-03T20:11:02.066Z,161.33
2018-03-03T20:13:28.439Z,159.47
2018-03-03T20:15:54.822Z,154.93
2018-03-03T20:18:21.209Z,156.50
2018-03-03T20:20:47.600Z,149.40
2018-03-03T20:23:13.994Z,151.73
2018-03-03T20:25:40.407Z,160.93
2018-03-03T20:28:06.786Z,155.90
2018-03-03T20:30:33.294Z,151.10
2018-03-03T20:32:59.762Z,150.77
2018-03-03T20:35:26.159Z,147.90
2018-03-03T20:37:52.543Z,151.07
2018-03-03T20:40:18.951Z,148.30
2018-03-03T20:42:45.358Z,154.40
2018-03-03T20:45:11.791Z,162.83
2018-03-03T20:47:38.241Z,160.40
2018-03-03T20:50:04.659Z,155.87
2018-03-03T20:52:31.150Z,161.77
2018-03-03T20:54:57.499Z,168.47
2018-03-03T20:57:23.867Z,170.33
2018-03-03T20:59:50.307Z,167.70
2018-03-03T21:02:16.713Z,170.47
2018-03-03T21:04:43.122Z,178.43
2018-03-03T21:07:09.498Z,177.50
2018-03-03T21:09:35.880Z,148.47
2018-03-03T21:12:03.373Z,164.23
2018-03-03T21:14:29.767Z,153.30
2018-03-03T21:16:56.174Z,150.33
2018-03-03T21:19:22.691Z,153.00
2018-03-03T21:21:49.166Z,147.30
2018-03-03T21:24:15.529Z,145.07
2018-03-03T21:26:41.906Z,141.93
2018-03-03T21:29:08.323Z,134.53
2018-03-03T21:31:34.758Z,128.00
2018-03-03T21:34:01.147Z,120.20
2018-03-03T21:36:27.563Z,115.60
2018-03-03T21:38:53.950Z,114.73
2018-03-03T21:41:20.387Z,111.80
2018-03-03T21:43:46.817Z,108.00
2018-03-03T21:46:13.174Z,110.47
2018-03-03T21:48:39.606Z,118.50
2018-03-03T21:51:06.023Z,112.30
2018-03-03T21:53:32.500Z,114.40
2018-03-03T21:55:58.883Z,115.23
2018-03-03T21:58:25.314Z,120.43
2018-03-03T22:00:51.717Z,123.37
2018-03-03T22:03:18.146Z,117.00
2018-03-03T22:05:44.609Z,118.40
2018-03-03T22:08:11.108Z,127.17
2018-03-03T22:10:37.445Z,127.33
2018-03-03T22:13:03.895Z,128.13
2018-03-03T22:15:30.394Z,127.20
2018-03-03T22:17:56.779Z,129.03
2018-03-03T22:20:23.210Z,127.53
2018-03-03T22:22:49.605Z,132.47
2018-03-03T22:25:15.963Z,135.17
2018-03-03T22:27:42.374Z,136.87
2018-03-03T22:30:08.737Z,151.20
2018-03-03T22:32:35.144Z,148.10
2018-03-03T22:35:01.626Z,140.93
2018-03-03T22:37:28.144Z,141.50
2018-03-03T22:39:54.564Z,140.23
2018-03-03T22:42:21.074Z,147.40
2018-03-03T22:44:47.422Z,145.87
2018-03-03T22:47:13.859Z,146.17
2018-03-03T22:49:40.262Z,143.87
2018-03-03T22:52:06.684Z,151.03
2018-03-03T22:54:33.098Z,141.33
2018-03-03T22:56:59.526Z,144.37
2018-03-03T22:59:25.981Z,144.37
2018-03-03T23:01:52.426Z,143.33
2018-03-03T23:04:18.931Z,145.47
2018-03-03T23:06:45.345Z,137.87
2018-03-03T23:09:11.799Z,148.60
2018-03-03T23:11:38.240Z,160.07
2018-03-03T23:14:04.637Z,150.70
2018-03-03T23:16:31.002Z,151.87
2018-03-03T23:18:57.389Z,155.90
2018-03-03T23:21:23.912Z,160.80
2018-03-03T23:23:50.465Z,154.77
2018-03-03T23:26:16.878Z,150.37
2018-03-03T23:28:43.305Z,147.23
2018-03-03T23:31:09.782Z,139.00
2018-03-03T23:33:36.151Z,141.03
2018-03-03T23:36:02.494Z,138.47
2018-03-03T23:38:28.862Z,146.70
2018-03-03T23:40:55.273Z,139.53
2018-03-03T23:43:21.757Z,138.50
2018-03-03T23:45:48.158Z,129.73
2018-03-03T23:48:14.598Z,129.27
2018-03-03T23:50:41.058Z,119.30
2018-03-03T23:53:07.490Z,114.47
2018-03-03T23:55:33.877Z,118.30
2018-03-03T23:58:00.231Z,118.73
